Time;durP1;ratioP1;P1;durP2;ratioP2;P2;SDS_P1;SDS_P2;PMS_P1;PMS_P2;Temp;Humidity;BMP_temperature;BMP_pressure;BME280_temperature;BME280_humidity;BME280_pressure;Samples;Min_cycle;Max_cycle;Signal;HPM_P1;HPM_P2
2022/05/08 00:02:08;;;;;;;21.23;15.50;;;;;;;14.26;100.00;98760.44;1631985;85;28037;-83
2022/05/08 00:04:34;;;;;;;25.52;15.43;;;;;;;14.32;100.00;98755.16;1630496;86;28093;-82
2022/05/08 00:07:01;;;;;;;21.73;15.43;;;;;;;14.35;100.00;98751.80;1634053;87;28133;-83
2022/05/08 00:09:27;;;;;;;23.70;16.42;;;;;;;14.30;100.00;98750.48;1634152;85;28563;-83
2022/05/08 00:11:55;;;;;;;21.93;16.67;;;;;;;14.21;100.00;98753.39;1635503;86;28105;-84
2022/05/08 00:14:22;;;;;;;22.98;15.93;;;;;;;14.26;100.00;98756.48;1636436;85;28109;-83
2022/05/08 00:16:48;;;;;;;21.90;14.68;;;;;;;14.29;100.00;98748.84;1635657;84;28083;-83
2022/05/08 00:19:14;;;;;;;25.27;15.83;;;;;;;14.32;100.00;98746.78;1630802;87;28167;-83
2022/05/08 00:21:40;;;;;;;19.35;14.55;;;;;;;14.38;100.00;98740.23;1630876;87;28165;-83
2022/05/08 00:24:07;;;;;;;26.02;15.40;;;;;;;14.44;100.00;98736.63;1639014;85;28078;-83
2022/05/08 00:26:33;;;;;;;21.93;14.60;;;;;;;14.45;100.00;98728.25;1637139;86;28110;-83
2022/05/08 00:28:59;;;;;;;23.45;16.35;;;;;;;14.43;100.00;98736.73;1638122;85;28161;-83
2022/05/08 00:31:26;;;;;;;24.80;15.80;;;;;;;14.40;100.00;98731.73;1640569;85;28106;-83
2022/05/08 00:33:55;;;;;;;25.35;15.83;;;;;;;14.36;100.00;98724.52;1629257;86;28045;-84
2022/05/08 00:36:21;;;;;;;23.65;15.75;;;;;;;14.32;100.00;98732.31;1635666;86;28177;-84
2022/05/08 00:38:48;;;;;;;24.55;15.98;;;;;;;14.31;100.00;98721.89;1638016;86;28156;-84
2022/05/08 00:41:14;;;;;;;23.15;16.57;;;;;;;14.28;100.00;98730.05;1628867;86;28074;-84
2022/05/08 00:43:41;;;;;;;22.27;16.55;;;;;;;14.25;100.00;98733.27;1643321;86;28084;-83
2022/05/08 00:46:12;;;;;;;24.27;17.50;;;;;;;14.26;100.00;98723.58;1626069;87;28109;-83
2022/05/08 00:48:41;;;;;;;26.77;16.97;;;;;;;14.21;100.00;98730.53;1626269;86;28097;-84
2022/05/08 00:51:13;;;;;;;28.40;16.73;;;;;;;14.16;100.00;98726.59;1627607;87;28021;-84
2022/05/08 00:53:42;;;;;;;26.73;17.23;;;;;;;14.09;100.00;98730.66;1625883;86;28020;-83
2022/05/08 00:56:10;;;;;;;24.05;16.55;;;;;;;14.03;100.00;98730.67;1622209;86;28075;-85
2022/05/08 00:58:39;;;;;;;22.20;15.95;;;;;;;13.95;100.00;98730.45;1623645;86;28077;-83
2022/05/08 01:01:06;;;;;;;23.55;15.40;;;;;;;13.94;100.00;98730.09;1627540;86;28131;-82
2022/05/08 01:03:32;;;;;;;23.12;15.40;;;;;;;13.99;100.00;98727.09;1631689;86;28005;-81
2022/05/08 01:06:02;;;;;;;23.85;16.05;;;;;;;13.99;100.00;98728.41;1626871;86;28094;-81
2022/05/08 01:08:28;;;;;;;22.77;14.38;;;;;;;13.99;100.00;98731.04;1625293;87;28031;-82
2022/05/08 01:10:55;;;;;;;22.48;14.33;;;;;;;13.98;100.00;98734.63;1634154;86;28098;-82
2022/05/08 01:13:22;;;;;;;20.48;14.78;;;;;;;13.98;100.00;98730.67;1628805;86;28110;-82
2022/05/08 01:15:48;;;;;;;21.40;14.45;;;;;;;13.98;100.00;98737.25;1633750;86;28179;-83
2022/05/08 01:18:16;;;;;;;19.60;13.20;;;;;;;13.97;100.00;98735.58;1626823;86;28100;-82
2022/05/08 01:20:44;;;;;;;18.73;13.75;;;;;;;13.92;100.00;98736.42;1643884;86;28098;-82
2022/05/08 01:23:16;;;;;;;22.17;15.00;;;;;;;13.87;100.00;98734.16;1612468;87;28074;-82
2022/05/08 01:25:54;;;;;;;22.17;15.28;;;;;;;13.91;100.00;98738.72;1626415;86;28105;-83
2022/05/08 01:28:22;;;;;;;17.95;12.05;;;;;;;13.92;100.00;98739.89;1629541;86;28181;-84
2022/05/08 01:30:51;;;;;;;22.50;16.25;;;;;;;13.90;100.00;98740.98;1605421;87;28175;-83
2022/05/08 01:33:18;;;;;;;23.02;15.03;;;;;;;13.88;100.00;98738.47;1615805;86;28086;-84
2022/05/08 01:35:45;;;;;;;21.90;14.98;;;;;;;13.88;100.00;98740.25;1613877;86;28089;-83
2022/05/08 01:38:14;;;;;;;18.87;14.70;;;;;;;13.92;100.00;98736.42;1632464;85;28203;-83
2022/05/08 01:40:43;;;;;;;22.67;15.28;;;;;;;13.96;100.00;98736.56;1636626;85;28153;-84
2022/05/08 01:43:10;;;;;;;20.88;14.87;;;;;;;14.01;100.00;98735.72;1636729;85;28094;-83
2022/05/08 01:45:38;;;;;;;22.45;15.10;;;;;;;14.02;100.00;98734.25;1639650;85;28090;-83
2022/05/08 01:48:23;;;;;;;18.67;14.20;;;;;;;14.07;100.00;98732.09;1638139;85;28188;-84
2022/05/08 01:50:53;;;;;;;20.00;13.78;;;;;;;14.11;100.00;98738.81;1641414;85;28185;-84
2022/05/08 01:53:21;;;;;;;18.95;14.33;;;;;;;14.04;100.00;98740.72;1620352;86;28674;-84
2022/05/08 01:55:55;;;;;;;19.07;14.15;;;;;;;13.97;100.00;98738.20;1613128;86;28104;-84
2022/05/08 01:58:23;;;;;;;21.33;13.72;;;;;;;13.92;100.00;98739.05;1633210;85;28102;-84
2022/05/08 02:00:49;;;;;;;18.98;12.88;;;;;;;13.86;100.00;98742.16;1635785;85;28004;-84
2022/05/08 02:03:18;;;;;;;18.85;13.05;;;;;;;13.87;100.00;98735.47;1630166;86;28153;-84
2022/05/08 02:05:44;;;;;;;17.10;12.23;;;;;;;13.85;100.00;98736.56;1634668;85;28110;-83
2022/05/08 02:08:11;;;;;;;18.92;12.78;;;;;;;13.76;100.00;98734.99;1630825;85;28054;-83
2022/05/08 02:10:38;;;;;;;19.00;14.23;;;;;;;13.77;100.00;98739.78;1618991;87;28156;-84
2022/05/08 02:13:07;;;;;;;19.05;13.53;;;;;;;13.82;100.00;98742.41;1610248;86;28081;-84
2022/05/08 02:15:34;;;;;;;21.75;15.45;;;;;;;13.96;100.00;98744.45;1639570;85;28158;-84
2022/05/08 02:18:06;;;;;;;20.30;15.18;;;;;;;14.02;100.00;98742.15;1607213;87;28042;-84
2022/05/08 02:20:32;;;;;;;;;;;;;;;14.03;100.00;98740.36;1617129;87;28086;-84
2022/05/08 02:23:00;;;;;;;22.93;14.80;;;;;;;14.05;100.00;98741.09;1591495;88;20208;-84
2022/05/08 02:25:27;;;;;;;21.97;16.77;;;;;;;14.02;100.00;98742.15;1611481;86;28076;-84
2022/05/08 02:27:54;;;;;;;21.93;15.55;;;;;;;13.99;100.00;98743.72;1604143;87;28191;-84
2022/05/08 02:30:25;;;;;;;23.18;15.80;;;;;;;13.99;100.00;98748.98;1603026;87;28041;-84
2022/05/08 02:32:55;;;;;;;17.23;11.28;;;;;;;13.97;100.00;98736.89;1619716;86;28037;-84
2022/05/08 02:35:22;;;;;;;19.75;15.53;;;;;;;13.91;100.00;98744.78;1622212;86;28067;-83
2022/05/08 02:37:52;;;;;;;23.25;16.37;;;;;;;13.85;100.00;98743.98;1627935;87;27990;-83
2022/05/08 02:40:20;;;;;;;23.57;16.32;;;;;;;13.78;100.00;98738.83;1625034;86;28123;-83
2022/05/08 02:42:48;;;;;;;22.87;16.00;;;;;;;13.73;100.00;98741.82;1628272;86;28201;-83
2022/05/08 02:45:14;;;;;;;24.05;17.52;;;;;;;13.74;100.00;98742.66;1624643;86;28126;-84
2022/05/08 02:47:41;;;;;;;23.75;16.87;;;;;;;13.72;100.00;98745.88;1626386;86;28050;-84
2022/05/08 02:50:12;;;;;;;24.27;16.45;;;;;;;13.65;100.00;98738.94;1625854;86;28096;-85
2022/05/08 02:52:41;;;;;;;23.05;17.20;;;;;;;13.59;100.00;98744.66;1623994;86;28032;-85
2022/05/08 03:00:54;;;;;;;28.00;16.52;;;;;;;13.53;100.00;98739.88;1629409;86;28201;-84
2022/05/08 03:03:20;;;;;;;22.62;16.35;;;;;;;13.52;100.00;98737.39;1634085;86;28082;-84
2022/05/08 03:05:47;;;;;;;22.87;16.25;;;;;;;13.51;100.00;98742.28;1626486;86;28184;-84
2022/05/08 03:08:17;;;;;;;23.27;17.62;;;;;;;13.48;100.00;98745.97;1629138;86;28145;-84
2022/05/08 03:13:31;;;;;;;21.97;17.10;;;;;;;13.51;100.00;98743.59;1625174;87;28154;-84
2022/05/08 03:15:58;;;;;;;25.68;18.25;;;;;;;13.48;100.00;98755.64;1629557;87;28104;-84
2022/05/08 03:18:24;;;;;;;24.18;17.50;;;;;;;13.45;100.00;98744.91;1627396;86;28162;-84
2022/05/08 03:20:50;;;;;;;21.55;15.55;;;;;;;13.45;100.00;98757.20;1626701;86;28212;-84
2022/05/08 03:23:17;;;;;;;23.85;16.73;;;;;;;13.42;100.00;98753.00;1623422;86;28097;-83
2022/05/08 03:25:43;;;;;;;24.25;17.32;;;;;;;13.42;100.00;98753.00;1625645;86;28258;-84
2022/05/08 03:28:10;;;;;;;23.15;16.97;;;;;;;13.37;100.00;98751.20;1626935;86;28040;-84
2022/05/08 03:30:36;;;;;;;27.35;17.82;;;;;;;13.36;100.00;98754.81;1627820;86;28086;-84
2022/05/08 03:33:03;;;;;;;24.12;17.25;;;;;;;13.34;100.00;98754.08;1643180;84;27998;-83
2022/05/08 03:35:29;;;;;;;22.55;16.55;;;;;;;13.37;100.00;98755.15;1654587;84;28155;-83
2022/05/08 03:37:55;;;;;;;26.77;18.02;;;;;;;13.37;100.00;98759.94;1653113;85;28157;-83
2022/05/08 03:40:22;;;;;;;21.80;16.85;;;;;;;13.38;100.00;98754.20;1633103;85;28097;-84
2022/05/08 03:42:48;;;;;;;24.45;16.62;;;;;;;13.41;100.00;98759.24;1635339;86;28083;-83
2022/05/08 03:45:14;;;;;;;24.02;17.02;;;;;;;13.42;100.00;98758.27;1640456;86;28110;-83
2022/05/08 03:47:41;;;;;;;23.45;17.20;;;;;;;13.44;100.00;98759.00;1644129;85;28132;-83
2022/05/08 03:50:13;;;;;;;24.47;16.35;;;;;;;13.47;100.00;98760.09;1643478;84;28150;-83
2022/05/08 03:52:39;;;;;;;25.08;16.85;;;;;;;13.48;100.00;98769.62;1629870;86;28111;-84
2022/05/08 03:55:06;;;;;;;23.80;16.55;;;;;;;13.52;100.00;98768.47;1638400;86;28202;-84
2022/05/08 03:57:33;;;;;;;24.02;18.20;;;;;;;13.59;100.00;98767.02;1652295;84;28092;-83
2022/05/08 03:59:59;;;;;;;26.42;18.25;;;;;;;13.78;100.00;98768.61;1633217;86;28149;-83
2022/05/08 04:02:25;;;;;;;23.70;17.67;;;;;;;13.97;100.00;98776.36;1650182;84;28176;-83
2022/05/08 04:04:54;;;;;;;28.05;17.60;;;;;;;14.10;100.00;98773.98;1652091;84;28124;-83
2022/05/08 04:07:21;;;;;;;24.40;17.12;;;;;;;14.21;100.00;98779.71;1648984;85;28017;-83
2022/05/08 04:09:47;;;;;;;25.43;17.92;;;;;;;14.29;100.00;98773.37;1655991;84;28214;-83
2022/05/08 04:12:13;;;;;;;25.68;17.77;;;;;;;14.40;100.00;98783.08;1648112;85;28110;-83
2022/05/08 04:14:39;;;;;;;23.00;17.27;;;;;;;14.47;100.00;98783.77;1647882;84;28104;-83
2022/05/08 04:17:06;;;;;;;23.12;17.40;;;;;;;14.51;100.00;98785.19;1651496;85;28158;-84
2022/05/08 04:19:33;;;;;;;23.95;17.32;;;;;;;14.55;100.00;98787.95;1651008;84;28070;-83
2022/05/08 04:24:44;;;;;;;22.48;16.00;;;;;;;14.37;100.00;98793.84;1623632;86;28160;-83
2022/05/08 04:27:11;;;;;;;24.05;17.17;;;;;;;14.20;100.00;98795.14;1657038;84;28112;-83
2022/05/08 04:29:37;;;;;;;23.60;18.12;;;;;;;14.11;100.00;98803.30;1632711;86;28149;-83
2022/05/08 04:32:04;;;;;;;25.97;17.60;;;;;;;14.10;100.00;98797.67;1651213;84;28206;-83
2022/05/08 04:34:30;;;;;;;26.05;18.52;;;;;;;14.21;100.00;98801.61;1664059;84;28123;-83
2022/05/08 04:36:57;;;;;;;25.55;18.20;;;;;;;14.28;100.00;98804.60;1661620;85;28159;-83
2022/05/08 04:39:29;;;;;;;23.15;17.60;;;;;;;14.32;100.00;98806.02;1660084;84;28091;-84
2022/05/08 04:41:56;;;;;;;24.40;18.20;;;;;;;14.42;100.00;98808.79;1658849;84;28085;-84
2022/05/08 04:44:22;;;;;;;20.90;17.05;;;;;;;14.49;100.00;98801.61;1660291;84;28152;-83
2022/05/08 04:46:57;;;;;;;23.67;18.95;;;;;;;14.52;100.00;98807.94;1658030;84;28103;-83
2022/05/08 04:49:24;;;;;;;24.18;17.50;;;;;;;14.55;100.00;98815.61;1659264;84;28168;-84
2022/05/08 04:51:50;;;;;;;25.77;18.17;;;;;;;14.57;100.00;98808.88;1662294;84;28080;-84
2022/05/08 04:54:16;;;;;;;25.17;17.95;;;;;;;14.58;100.00;98814.51;1657252;84;28197;-84
2022/05/08 04:56:42;;;;;;;25.90;18.85;;;;;;;14.58;100.00;98814.51;1656855;85;28066;-84
2022/05/08 04:59:08;;;;;;;23.98;17.40;;;;;;;14.59;100.00;98813.08;1660794;84;28084;-83
2022/05/08 05:01:35;;;;;;;25.27;18.23;;;;;;;14.60;100.00;98813.92;1656066;84;28142;-84
2022/05/08 05:04:01;;;;;;;24.85;17.73;;;;;;;14.61;100.00;98819.07;1629015;87;28092;-84
2022/05/08 05:06:27;;;;;;;24.50;18.65;;;;;;;14.58;100.00;98817.98;1635559;86;28121;-85
2022/05/08 05:08:54;;;;;;;29.40;19.48;;;;;;;14.53;100.00;98820.15;1646060;86;28210;-84
2022/05/08 05:11:20;;;;;;;24.25;17.85;;;;;;;14.49;100.00;98818.73;1658786;84;28077;-84
2022/05/08 05:13:46;;;;;;;24.12;18.62;;;;;;;14.50;100.00;98828.31;1658451;84;28108;-84
2022/05/08 05:16:13;;;;;;;25.57;18.32;;;;;;;14.47;100.00;98831.17;1632529;86;28194;-84
2022/05/08 05:18:39;;;;;;;26.27;19.27;;;;;;;14.44;100.00;98831.91;1656261;84;28094;-84
2022/05/08 05:21:06;;;;;;;26.07;18.27;;;;;;;14.42;100.00;98826.75;1632309;86;28254;-84
2022/05/08 05:23:35;;;;;;;27.22;18.82;;;;;;;14.43;100.00;98831.53;1651104;85;28157;-84
2022/05/08 05:26:02;;;;;;;25.00;18.37;;;;;;;14.45;100.00;98825.20;1632240;86;28168;-84
2022/05/08 05:28:29;;;;;;;25.90;18.35;;;;;;;14.44;100.00;98830.11;1659951;84;28070;-84
2022/05/08 05:30:57;;;;;;;27.07;18.20;;;;;;;14.37;100.00;98835.49;1644990;85;28094;-84
2022/05/08 05:33:26;;;;;;;25.30;17.95;;;;;;;14.40;100.00;98834.42;1639439;85;28129;-84
2022/05/08 05:35:52;;;;;;;25.00;18.70;;;;;;;14.40;100.00;98839.70;1625537;86;28103;-83
2022/05/08 05:38:19;;;;;;;30.82;19.27;;;;;;;14.43;100.00;98841.59;1616844;87;28042;-84
2022/05/08 05:40:45;;;;;;;27.25;19.77;;;;;;;14.46;100.00;98839.18;1624769;86;28191;-83
2022/05/08 05:43:11;;;;;;;30.82;23.12;;;;;;;14.49;100.00;98839.80;1622417;86;28096;-83
2022/05/08 05:45:39;;;;;;;34.70;22.95;;;;;;;14.49;100.00;98834.53;1623427;86;28053;-83
2022/05/08 05:48:06;;;;;;;30.68;21.10;;;;;;;14.55;100.00;98841.11;1624649;86;28162;-85
2022/05/08 05:50:33;;;;;;;30.88;21.27;;;;;;;14.60;100.00;98842.89;1619693;86;28571;-85
2022/05/08 05:53:00;;;;;;;31.12;21.37;;;;;;;14.63;100.00;98846.11;1607999;86;28123;-85
2022/05/08 05:55:26;;;;;;;28.92;20.92;;;;;;;14.64;100.00;98850.42;1612532;86;28184;-84
2022/05/08 05:57:52;;;;;;;29.23;20.20;;;;;;;14.68;100.00;98848.84;1614809;87;28104;-84
2022/05/08 06:00:20;;;;;;;28.50;20.25;;;;;;;14.75;100.00;98853.99;1617193;87;28013;-84
2022/05/08 06:02:48;;;;;;;26.00;20.02;;;;;;;14.77;100.00;98859.52;1622796;86;28140;-84
2022/05/08 06:05:17;;;;;;;29.05;21.52;;;;;;;14.79;100.00;98856.73;1613252;87;28500;-85
2022/05/08 06:07:43;;;;;;;29.67;21.55;;;;;;;14.81;100.00;98852.19;1618165;86;28160;-84
2022/05/08 06:10:11;;;;;;;30.35;21.97;;;;;;;14.81;100.00;98852.19;1611978;86;28120;-83
2022/05/08 06:12:39;;;;;;;28.23;20.52;;;;;;;14.75;100.00;98852.67;1615029;87;28108;-84
2022/05/08 06:15:08;;;;;;;30.85;21.35;;;;;;;14.73;100.00;98844.89;1615220;87;28233;-84
2022/05/08 06:17:33;;;;;;;29.42;21.73;;;;;;;14.74;100.00;98849.68;1617604;86;28194;-85
2022/05/08 06:20:00;;;;;;;25.32;19.48;;;;;;;14.78;100.00;98849.81;1612763;87;28092;-84
2022/05/08 06:22:28;;;;;;;27.32;19.17;;;;;;;14.81;100.00;98850.87;1613922;87;28095;-85
2022/05/08 06:24:54;;;;;;;26.97;19.70;;;;;;;14.85;100.00;98843.06;1619990;86;28123;-84
2022/05/08 06:27:21;;;;;;;27.52;20.15;;;;;;;14.91;100.00;98850.48;1612641;86;28104;-84
2022/05/08 06:29:48;;;;;;;26.85;19.67;;;;;;;14.99;100.00;98839.69;1631920;86;28172;-84
2022/05/08 06:32:14;;;;;;;29.00;19.70;;;;;;;15.11;100.00;98843.09;1636130;85;28120;-84
2022/05/08 06:34:41;;;;;;;25.82;19.20;;;;;;;15.17;100.00;98850.51;1653995;86;28109;-84
2022/05/08 06:37:08;;;;;;;26.73;19.30;;;;;;;15.17;100.00;98843.08;1657317;85;28195;-84
2022/05/08 06:39:34;;;;;;;27.15;19.75;;;;;;;15.16;100.00;98846.22;1658038;86;28132;-84
2022/05/08 06:42:00;;;;;;;24.30;18.48;;;;;;;15.20;100.00;98851.59;1641306;86;28194;-84
2022/05/08 06:44:32;;;;;;;25.32;19.12;;;;;;;15.23;100.00;98851.33;1622322;86;28123;-85
2022/05/08 06:46:58;;;;;;;27.90;18.95;;;;;;;15.28;100.00;98853.10;1628955;86;28114;-84
2022/05/08 06:49:25;;;;;;;26.20;17.23;;;;;;;15.33;100.00;98852.72;1656285;86;28124;-84
2022/05/08 06:51:51;;;;;;;25.48;18.15;;;;;;;15.43;100.00;98848.38;1658877;84;28042;-84
2022/05/08 06:54:19;;;;;;;26.40;19.10;;;;;;;15.55;100.00;98850.52;1657579;86;28076;-83
2022/05/08 06:56:46;;;;;;;26.97;18.35;;;;;;;15.57;100.00;98845.93;1656531;86;28093;-84
2022/05/08 07:01:57;;;;;;;26.57;17.65;;;;;;;15.57;100.00;98849.41;1658855;84;28121;-83
2022/05/08 07:04:23;;;;;;;27.05;18.27;;;;;;;15.65;100.00;98847.45;1659625;84;28190;-83
2022/05/08 07:06:52;;;;;;;27.48;18.40;;;;;;;15.71;100.00;98856.99;1657014;86;28140;-83
2022/05/08 07:09:18;;;;;;;23.73;17.27;;;;;;;15.79;100.00;98858.52;1657275;85;28096;-84
2022/05/08 07:11:47;;;;;;;22.80;16.30;;;;;;;15.87;100.00;98863.97;1657300;86;28140;-83
2022/05/08 07:14:14;;;;;;;21.95;16.85;;;;;;;15.89;100.00;98856.77;1657775;85;28062;-83
2022/05/08 07:16:50;;;;;;;22.70;16.67;;;;;;;15.94;100.00;98862.97;1657523;85;28085;-84
2022/05/08 07:19:16;;;;;;;21.80;15.93;;;;;;;15.98;100.00;98863.09;1630843;86;28200;-84
2022/05/08 07:21:42;;;;;;;20.70;15.90;;;;;;;16.02;100.00;98870.25;1629546;86;28127;-84
2022/05/08 07:24:09;;;;;;;19.95;15.18;;;;;;;16.07;100.00;98863.61;1661857;85;28068;-84
2022/05/08 07:26:39;;;;;;;20.32;14.35;;;;;;;16.09;100.00;98865.63;1660378;84;28485;-83
2022/05/08 07:29:06;;;;;;;18.23;13.18;;;;;;;16.12;100.00;98871.98;1655740;85;28080;-84
2022/05/08 07:31:33;;;;;;;21.00;14.00;;;;;;;16.18;100.00;98870.14;1657862;84;28056;-83
2022/05/08 07:36:44;;;;;;;21.60;13.22;;;;;;;16.27;100.00;98871.97;1616994;86;28165;-84
2022/05/08 07:39:10;;;;;;;18.57;12.40;;;;;;;16.30;100.00;98872.20;1615705;86;28136;-83
2022/05/08 07:41:37;;;;;;;16.77;12.25;;;;;;;16.29;100.00;98868.73;1618923;86;28088;-83
2022/05/08 07:44:03;;;;;;;18.37;12.25;;;;;;;16.33;100.00;98871.45;1623396;86;28101;-84
2022/05/08 07:46:33;;;;;;;17.10;13.00;;;;;;;16.36;100.00;98871.69;1617379;86;28145;-84
2022/05/08 07:48:59;;;;;;;18.75;13.13;;;;;;;16.39;100.00;98874.05;1612821;87;28108;-84
2022/05/08 07:51:26;;;;;;;18.75;13.22;;;;;;;16.44;100.00;98880.25;1634176;85;28096;-84
2022/05/08 07:53:52;;;;;;;19.35;12.75;;;;;;;16.45;100.00;98877.96;1636416;86;28165;-84
2022/05/08 07:56:18;;;;;;;15.00;11.20;;;;;;;16.47;100.00;98878.67;1637660;87;28090;-84
2022/05/08 07:58:46;;;;;;;15.30;11.83;;;;;;;16.53;100.00;98871.55;1637032;85;28120;-84
2022/05/08 08:01:13;;;;;;;17.67;11.60;;;;;;;16.61;100.00;98871.72;1635701;86;28136;-84
2022/05/08 08:03:41;;;;;;;18.12;12.70;;;;;;;16.66;100.00;98875.63;1636939;86;28156;-83
2022/05/08 08:06:07;;;;;;;18.77;12.70;;;;;;;16.69;100.00;98875.87;1629086;86;28124;-83
2022/05/08 08:08:34;;;;;;;17.92;12.30;;;;;;;16.72;100.00;98879.06;1624654;86;28174;-83
2022/05/08 08:11:03;;;;;;;17.42;13.00;;;;;;;16.71;100.00;98877.39;1624543;86;28081;-83
2022/05/08 08:13:31;;;;;;;16.20;12.10;;;;;;;16.71;100.00;98875.23;1618324;87;28009;-83
2022/05/08 08:15:59;;;;;;;18.37;13.32;;;;;;;16.72;100.00;98878.23;1642096;84;28114;-83
2022/05/08 08:18:26;;;;;;;18.48;13.00;;;;;;;16.75;100.00;98876.62;1644306;85;28223;-83
2022/05/08 08:20:52;;;;;;;13.45;11.65;;;;;;;16.89;100.00;98874.94;1642154;84;28101;-82
2022/05/08 08:23:19;;;;;;;16.07;11.60;;;;;;;16.93;100.00;98876.81;1646254;84;28075;-83
2022/05/08 08:25:45;;;;;;;15.03;10.40;;;;;;;16.89;100.00;98877.58;1642595;84;28110;-83
2022/05/08 08:28:12;;;;;;;19.35;13.08;;;;;;;16.83;100.00;98878.12;1647588;84;28144;-84
2022/05/08 08:30:38;;;;;;;13.25;9.73;;;;;;;16.75;100.00;98875.30;1642768;85;28086;-84
2022/05/08 08:33:05;;;;;;;14.33;10.68;;;;;;;16.72;100.00;98878.23;1643812;84;28142;-84
2022/05/08 08:35:33;;;;;;;13.58;9.88;;;;;;;16.62;100.00;98870.77;1638655;85;28234;-84
2022/05/08 08:38:00;;;;;;;10.70;8.18;;;;;;;16.59;100.00;98871.84;1623119;86;28088;-84
2022/05/08 08:40:27;;;;;;;15.03;8.10;;;;;;;16.65;100.00;98881.05;1622481;86;28061;-84
2022/05/08 08:42:56;;;;;;;10.05;8.15;;;;;;;16.72;100.00;98884.84;1620637;86;28097;-84
2022/05/08 08:48:16;;;;;;;10.68;7.60;;;;;;;16.92;100.00;98877.30;1631400;85;28109;-84
2022/05/08 08:50:52;;;;;;;9.20;7.20;;;;;;;17.07;100.00;98884.38;1647091;85;28165;-84
2022/05/08 08:53:18;;;;;;;7.97;6.67;;;;;;;17.21;100.00;98880.47;1623221;86;28098;-84
2022/05/08 08:55:51;;;;;;;7.25;6.00;;;;;;;17.33;100.00;98881.53;1624168;86;28100;-84
2022/05/08 08:58:18;;;;;;;7.55;6.60;;;;;;;17.41;100.00;98886.12;1650623;85;28097;-84
2022/05/08 09:00:49;;;;;;;8.95;6.42;;;;;;;17.46;100.00;98883.41;1650237;85;28125;-84
2022/05/08 09:03:25;;;;;;;7.83;5.17;;;;;;;17.62;100.00;98888.67;1626684;86;28080;-84
2022/05/08 09:05:57;;;;;;;10.32;6.45;;;;;;;17.67;100.00;98886.44;1625904;86;28006;-83
2022/05/08 09:08:30;;;;;;;7.05;6.03;;;;;;;17.80;100.00;98888.30;1624954;87;28241;-83
2022/05/08 09:10:58;;;;;;;6.65;5.60;;;;;;;17.92;100.00;98884.03;1638833;86;28105;-83
2022/05/08 09:13:40;;;;;;;8.38;5.72;;;;;;;17.95;100.00;98886.38;1625387;87;28210;-83
2022/05/08 09:16:07;;;;;;;7.08;5.47;;;;;;;18.04;100.00;98887.36;1622827;86;28170;-84
2022/05/08 09:18:44;;;;;;;6.58;4.83;;;;;;;18.15;100.00;98886.35;1625930;86;28170;-83
2022/05/08 09:24:08;;;;;;;5.95;4.75;;;;;;;18.38;100.00;98881.06;1629780;86;28108;-84
2022/05/08 09:26:36;;;;;;;5.33;4.12;;;;;;;18.58;100.00;98883.16;1624236;86;28147;-84
2022/05/08 09:29:04;;;;;;;5.80;4.83;;;;;;;18.66;100.00;98882.75;1643122;85;28160;-84
2022/05/08 09:31:41;;;;;;;6.97;4.55;;;;;;;18.78;100.00;98885.56;1633388;86;28059;-83
2022/05/08 09:34:08;;;;;;;6.03;4.37;;;;;;;18.79;100.00;98875.79;1632609;86;28082;-84
2022/05/08 09:36:36;;;;;;;4.92;4.40;;;;;;;18.79;100.00;98876.62;1623162;86;28138;-84
2022/05/08 09:39:05;;;;;;;5.08;4.12;;;;;;;18.84;100.00;98876.67;1625943;86;28024;-84
2022/05/08 09:41:37;;;;;;;8.53;5.70;;;;;;;18.93;100.00;98871.81;1615363;86;28201;-84
2022/05/08 09:44:12;;;;;;;4.72;4.22;;;;;;;18.94;100.00;98873.46;1642735;86;28002;-85
2022/05/08 09:46:43;;;;;;;7.28;4.90;;;;;;;18.90;100.00;98869.45;1644583;85;28156;-84
2022/05/08 09:49:12;;;;;;;6.17;4.45;;;;;;;18.91;100.00;98864.48;1640648;85;28155;-84
2022/05/08 09:51:42;;;;;;;5.62;4.80;;;;;;;18.93;100.00;98863.86;1622587;86;28085;-84
2022/05/08 09:54:08;;;;;;;6.75;5.00;;;;;;;18.91;100.00;98868.47;1614250;87;28116;-84
2022/05/08 09:56:35;;;;;;;6.00;4.85;;;;;;;19.03;100.00;98869.44;1615619;86;28149;-84
2022/05/08 09:59:02;;;;;;;8.38;5.28;;;;;;;19.04;100.00;98871.09;1643040;86;28160;-85
2022/05/08 10:01:37;;;;;;;6.22;5.28;;;;;;;18.98;100.00;98865.57;1641450;86;28211;-84
2022/05/08 10:04:10;;;;;;;8.23;5.25;;;;;;;18.98;100.00;98866.41;1613360;86;28081;-84
2022/05/08 10:06:37;;;;;;;6.20;5.40;;;;;;;19.05;100.00;98862.15;1617513;86;28166;-84
2022/05/08 10:14:35;;;;;;;5.12;4.55;;;;;;;18.84;100.00;98852.31;1645942;84;28283;-84
2022/05/08 10:17:03;;;;;;;9.28;4.75;;;;;;;18.82;100.00;98850.80;1641367;85;28009;-84
2022/05/08 10:19:36;;;;;;;6.97;5.30;;;;;;;18.77;100.00;98848.58;1644321;85;28123;-84
2022/05/08 10:22:07;;;;;;;7.92;5.42;;;;;;;18.78;100.00;98845.78;1645833;85;28106;-84
2022/05/08 10:24:42;;;;;;;5.97;3.85;;;;;;;18.93;100.00;98843.45;1645526;85;28096;-84
2022/05/08 10:27:17;;;;;;;6.95;5.17;;;;;;;18.94;100.00;98842.95;1623357;86;28146;-84
2022/05/08 10:29:54;;;;;;;8.08;4.70;;;;;;;18.92;100.00;98838.31;1620807;86;28148;-84
2022/05/08 10:32:33;;;;;;;5.78;4.45;;;;;;;18.93;100.00;98830.19;1610551;87;28113;-84
2022/05/08 10:35:25;;;;;;;7.58;5.03;;;;;;;18.91;100.00;98836.64;1622882;87;28491;-84
2022/05/08 10:38:01;;;;;;;5.00;4.40;;;;;;;18.95;100.00;98832.70;1612054;87;28026;-84
2022/05/08 10:40:32;;;;;;;6.17;4.87;;;;;;;19.07;100.00;98834.16;1602486;87;28125;-83
2022/05/08 10:43:01;;;;;;;6.28;5.17;;;;;;;19.08;100.00;98829.20;1610413;87;28092;-84
2022/05/08 10:45:34;;;;;;;6.95;4.80;;;;;;;19.06;100.00;98826.69;1605886;88;28115;-84
2022/05/08 10:48:09;;;;;;;7.90;5.25;;;;;;;18.94;100.00;98832.34;1611413;87;28093;-84
2022/05/08 10:50:46;;;;;;;6.10;4.95;;;;;;;18.84;100.00;98836.88;1613626;86;28127;-84
2022/05/08 10:53:32;;;;;;;6.83;5.60;;;;;;;18.78;100.00;98831.20;1607775;88;28133;-84
2022/05/08 10:56:10;;;;;;;6.60;5.10;;;;;;;18.73;100.00;98830.81;1609834;87;28092;-84
2022/05/08 10:58:40;;;;;;;8.20;5.00;;;;;;;18.80;100.00;98824.42;1610957;86;28100;-84
2022/05/08 11:01:09;;;;;;;7.65;5.72;;;;;;;18.89;100.00;98817.38;1613793;87;28096;-84
2022/05/08 11:03:36;;;;;;;9.30;4.80;;;;;;;19.09;100.00;98814.42;1614693;86;28138;-84
2022/05/08 11:06:04;;;;;;;4.90;4.37;;;;;;;19.27;100.00;98814.43;1613007;87;28052;-84
2022/05/08 11:08:33;;;;;;;6.92;4.03;;;;;;;19.29;100.00;98812.96;1609652;87;28055;-84
2022/05/08 11:11:03;;;;;;;6.12;5.28;;;;;;;19.28;100.00;98813.94;1612284;88;28090;-83
2022/05/08 11:13:48;;;;;;;5.58;5.03;;;;;;;19.33;100.00;98804.53;1613748;87;28257;-84
2022/05/08 11:16:37;;;;;;;6.87;4.83;;;;;;;19.35;100.00;98811.03;1594998;88;28176;-84
2022/05/08 11:19:05;;;;;;;7.20;5.47;;;;;;;19.34;100.00;98801.39;1609001;87;28192;-84
2022/05/08 11:21:32;;;;;;;7.03;5.37;;;;;;;19.43;100.00;98797.31;1609614;87;28159;-84
2022/05/08 11:23:59;;;;;;;7.00;4.78;;;;;;;19.55;100.00;98794.79;1609063;87;28187;-84
2022/05/08 11:26:32;;;;;;;7.83;4.80;;;;;;;19.60;100.00;98795.16;1609758;86;28177;-84
2022/05/08 11:28:59;;;;;;;5.37;4.00;;;;;;;19.78;100.00;98792.95;1609945;87;28082;-84
2022/05/08 11:31:27;;;;;;;6.47;4.62;;;;;;;19.95;100.00;98791.58;1609017;87;28191;-84
2022/05/08 11:36:40;;;;;;;6.92;4.65;;;;;;;19.90;100.00;98791.70;1619253;86;28060;-84
2022/05/08 11:39:15;;;;;;;6.78;5.00;;;;;;;19.86;100.00;98786.34;1616890;87;28093;-84
2022/05/08 11:41:44;;;;;;;5.85;4.70;;;;;;;19.97;100.00;98787.41;1617672;86;28190;-84
2022/05/08 11:44:17;;;;;;;8.38;5.33;;;;;;;20.10;100.00;98785.66;1643438;85;28164;-84
2022/05/08 11:46:48;;;;;;;9.63;5.05;;;;;;;20.26;100.00;98783.08;1619124;86;28109;-84
2022/05/08 11:49:24;;;;;;;5.85;4.47;;;;;;;20.49;100.00;98784.20;1622536;86;28186;-84
2022/05/08 11:52:00;;;;;;;8.45;5.08;;;;;;;20.56;100.00;98781.73;1617360;86;28107;-85